BOX192 EDDP-EGNX
Flight info
| Callsign | BOX192 |
|---|---|
| Flight time | 1h 29m |
| Altitude | 36000 |
| Route | PENEM1N PENEM Y233 EMBOX L986 POVEL DCT GALSO Q63 ERING L179 LAM L610 HEMEL |
| Aircraft | B77L/H-SDE1E2E3FGHIJ2J3J4J5M1RWXY/LB1D1 |
Departure
| Time | 2026-05-06 14:03 |
|---|---|
| Airport | Leipzig/Halle Airport (EDDP) |
Arrival
| Time | 2026-05-06 15:33 |
|---|---|
| Airport | East Midlands Airport (EGNX) |
| Time | Latitude | Longitude | Altitude | Speed | Heading |
|---|---|---|---|---|---|
| 2026-05-06 13:08 | 51.40894 | 12.24522 | 470 ft | 0 kts | 265° |
| 2026-05-06 13:47 | 51.40894 | 12.24524 | 468 ft | 2 kts | 265° |
| 2026-05-06 13:47 | 51.40895 | 12.24564 | 466 ft | 4 kts | 266° |
| 2026-05-06 13:47 | 51.40895 | 12.24600 | 463 ft | 4 kts | 295° |
| 2026-05-06 13:48 | 51.40879 | 12.24622 | 465 ft | 4 kts | 354° |
| 2026-05-06 13:48 | 51.40857 | 12.24624 | 465 ft | 1 kts | 356° |
| 2026-05-06 13:48 | 51.40854 | 12.24625 | 464 ft | 2 kts | 356° |
| 2026-05-06 13:57 | 51.40874 | 12.24622 | 470 ft | 7 kts | 356° |
| 2026-05-06 13:57 | 51.40953 | 12.24613 | 472 ft | 0 kts | 356° |
| 2026-05-06 13:58 | 51.40972 | 12.24611 | 467 ft | 10 kts | 356° |
| 2026-05-06 13:58 | 51.41074 | 12.24621 | 469 ft | 16 kts | 38° |
| 2026-05-06 13:58 | 51.41103 | 12.24791 | 469 ft | 16 kts | 84° |
| 2026-05-06 13:58 | 51.41113 | 12.24970 | 476 ft | 16 kts | 84° |
| 2026-05-06 13:59 | 51.41124 | 12.25148 | 476 ft | 16 kts | 84° |
| 2026-05-06 13:59 | 51.41131 | 12.25327 | 477 ft | 16 kts | 86° |
| 2026-05-06 13:59 | 51.41138 | 12.25506 | 479 ft | 16 kts | 86° |
| 2026-05-06 13:59 | 51.41212 | 12.25618 | 477 ft | 16 kts | 9° |
| 2026-05-06 14:00 | 51.41274 | 12.25614 | 483 ft | 0 kts | 355° |
| 2026-05-06 14:01 | 51.41280 | 12.25614 | 478 ft | 2 kts | 355° |
| 2026-05-06 14:01 | 51.41319 | 12.25608 | 479 ft | 14 kts | 355° |
| 2026-05-06 14:01 | 51.41395 | 12.25575 | 476 ft | 10 kts | 305° |
| 2026-05-06 14:01 | 51.41398 | 12.25503 | 480 ft | 0 kts | 262° |
| 2026-05-06 14:02 | 51.41398 | 12.25498 | 480 ft | 6 kts | 262° |
| 2026-05-06 14:02 | 51.41377 | 12.25071 | 481 ft | 75 kts | 266° |
| 2026-05-06 14:02 | 51.41319 | 12.23868 | 471 ft | 139 kts | 265° |
| 2026-05-06 14:03 | 51.41226 | 12.22038 | 480 ft | 186 kts | 268° |
| 2026-05-06 14:03 | 51.41112 | 12.19973 | 1012 ft | 184 kts | 266° |
| 2026-05-06 14:03 | 51.41012 | 12.17958 | 1682 ft | 182 kts | 265° |
| 2026-05-06 14:03 | 51.40911 | 12.15930 | 2321 ft | 182 kts | 265° |
| 2026-05-06 14:04 | 51.40800 | 12.13896 | 2880 ft | 182 kts | 263° |
| 2026-05-06 14:04 | 51.40714 | 12.11913 | 3471 ft | 181 kts | 274° |
| 2026-05-06 14:04 | 51.41180 | 12.09988 | 3829 ft | 198 kts | 304° |
| 2026-05-06 14:04 | 51.42277 | 12.08460 | 4018 ft | 224 kts | 332° |
| 2026-05-06 14:05 | 51.43887 | 12.08017 | 4230 ft | 249 kts | 360° |
| 2026-05-06 14:05 | 51.45671 | 12.08132 | 4648 ft | 263 kts | 359° |
| 2026-05-06 14:05 | 51.47541 | 12.08181 | 5213 ft | 275 kts | 358° |
| 2026-05-06 14:05 | 51.49468 | 12.08201 | 5914 ft | 281 kts | 358° |
| 2026-05-06 14:06 | 51.51425 | 12.08210 | 6673 ft | 284 kts | 358° |
| 2026-05-06 14:06 | 51.53402 | 12.08217 | 7413 ft | 288 kts | 358° |
| 2026-05-06 14:06 | 51.55416 | 12.08270 | 8150 ft | 292 kts | 359° |
| 2026-05-06 14:06 | 51.57461 | 12.08343 | 8892 ft | 296 kts | 359° |
| 2026-05-06 14:07 | 51.59531 | 12.08419 | 9638 ft | 300 kts | 359° |
| 2026-05-06 14:07 | 51.61640 | 12.08492 | 10229 ft | 308 kts | 358° |
| 2026-05-06 14:07 | 51.63870 | 12.08564 | 10435 ft | 333 kts | 359° |
| 2026-05-06 14:07 | 51.67394 | 12.08676 | 10819 ft | 365 kts | 359° |
| 2026-05-06 14:08 | 51.67745 | 12.08686 | 10874 ft | 366 kts | 358° |
| 2026-05-06 14:08 | 51.70266 | 12.08190 | 11062 ft | 376 kts | 336° |
| 2026-05-06 14:08 | 51.72509 | 12.06055 | 11734 ft | 378 kts | 315° |
| 2026-05-06 14:08 | 51.74287 | 12.02959 | 12482 ft | 379 kts | 306° |
| 2026-05-06 14:09 | 51.75833 | 11.99481 | 13313 ft | 383 kts | 299° |
| 2026-05-06 14:09 | 51.77126 | 11.95761 | 14170 ft | 385 kts | 295° |
| 2026-05-06 14:09 | 51.78370 | 11.91909 | 14971 ft | 389 kts | 294° |
| 2026-05-06 14:09 | 51.79610 | 11.88000 | 15786 ft | 393 kts | 294° |
| 2026-05-06 14:10 | 51.80860 | 11.84046 | 16580 ft | 397 kts | 294° |
| 2026-05-06 14:10 | 51.82127 | 11.80051 | 17374 ft | 402 kts | 294° |
| 2026-05-06 14:10 | 51.83414 | 11.76004 | 18131 ft | 407 kts | 294° |
| 2026-05-06 14:10 | 51.84719 | 11.71916 | 18882 ft | 410 kts | 294° |
| 2026-05-06 14:11 | 51.86030 | 11.67816 | 19644 ft | 412 kts | 294° |
| 2026-05-06 14:11 | 51.87351 | 11.63687 | 20329 ft | 415 kts | 293° |
| 2026-05-06 14:11 | 51.88684 | 11.59511 | 20976 ft | 420 kts | 293° |
| 2026-05-06 14:11 | 51.89975 | 11.55264 | 21637 ft | 421 kts | 288° |
| 2026-05-06 14:12 | 51.90855 | 11.50753 | 22278 ft | 420 kts | 278° |
| 2026-05-06 14:12 | 51.91290 | 11.46143 | 22957 ft | 419 kts | 271° |
| 2026-05-06 14:12 | 51.91365 | 11.43021 | 23385 ft | 419 kts | 267° |
| 2026-05-06 14:12 | 51.91408 | 11.36716 | 24097 ft | 424 kts | 267° |
| 2026-05-06 14:13 | 51.91447 | 11.31945 | 24605 ft | 428 kts | 267° |
| 2026-05-06 14:13 | 51.91492 | 11.27111 | 25145 ft | 431 kts | 267° |
| 2026-05-06 14:13 | 51.91541 | 11.22233 | 25618 ft | 435 kts | 267° |
| 2026-05-06 14:13 | 51.91574 | 11.18975 | 25944 ft | 438 kts | 267° |
| 2026-05-06 14:14 | 51.91626 | 11.14037 | 26434 ft | 442 kts | 267° |
| 2026-05-06 14:14 | 51.91677 | 11.09051 | 26922 ft | 445 kts | 267° |
| 2026-05-06 14:14 | 51.91744 | 11.02371 | 27561 ft | 450 kts | 267° |
| 2026-05-06 14:14 | 51.91794 | 10.97288 | 28037 ft | 453 kts | 267° |
| 2026-05-06 14:15 | 51.91841 | 10.92166 | 28502 ft | 457 kts | 267° |
| 2026-05-06 14:15 | 51.91871 | 10.88720 | 28781 ft | 459 kts | 267° |
| 2026-05-06 14:15 | 51.91915 | 10.83572 | 29215 ft | 462 kts | 267° |
| 2026-05-06 14:15 | 51.91957 | 10.78419 | 29779 ft | 461 kts | 267° |
| 2026-05-06 14:16 | 51.91998 | 10.73222 | 30250 ft | 461 kts | 267° |
| 2026-05-06 14:16 | 51.92036 | 10.68105 | 30732 ft | 460 kts | 267° |
| 2026-05-06 14:16 | 51.92072 | 10.62859 | 31248 ft | 458 kts | 267° |
| 2026-05-06 14:16 | 51.92105 | 10.57772 | 31758 ft | 457 kts | 267° |
| 2026-05-06 14:17 | 51.92135 | 10.52640 | 32235 ft | 456 kts | 267° |
| 2026-05-06 14:17 | 51.92163 | 10.47511 | 32699 ft | 455 kts | 267° |
| 2026-05-06 14:17 | 51.92188 | 10.42384 | 33165 ft | 454 kts | 267° |
| 2026-05-06 14:17 | 51.92212 | 10.37284 | 33643 ft | 453 kts | 267° |
| 2026-05-06 14:18 | 51.92232 | 10.32244 | 34017 ft | 452 kts | 267° |
| 2026-05-06 14:18 | 51.92250 | 10.27145 | 34308 ft | 454 kts | 267° |
| 2026-05-06 14:18 | 51.92265 | 10.21999 | 34467 ft | 458 kts | 268° |
| 2026-05-06 14:18 | 51.92279 | 10.16860 | 34766 ft | 458 kts | 268° |
| 2026-05-06 14:19 | 51.92292 | 10.11707 | 35128 ft | 457 kts | 267° |
| 2026-05-06 14:19 | 51.92302 | 10.06565 | 35453 ft | 456 kts | 267° |
| 2026-05-06 14:19 | 51.92311 | 10.01418 | 35694 ft | 458 kts | 267° |
| 2026-05-06 14:19 | 51.92316 | 9.96228 | 35750 ft | 462 kts | 267° |
| 2026-05-06 14:20 | 51.92320 | 9.85832 | 35778 ft | 460 kts | 267° |
| 2026-05-06 14:20 | 51.92316 | 9.75522 | 35801 ft | 456 kts | 267° |
| 2026-05-06 14:21 | 51.92303 | 9.65276 | 35799 ft | 454 kts | 267° |
| 2026-05-06 14:21 | 51.92279 | 9.55045 | 35800 ft | 454 kts | 267° |
| 2026-05-06 14:22 | 51.92247 | 9.44802 | 35791 ft | 455 kts | 267° |
| 2026-05-06 14:22 | 51.92207 | 9.34544 | 35806 ft | 456 kts | 267° |
| 2026-05-06 14:23 | 51.92157 | 9.24309 | 35805 ft | 457 kts | 267° |
| 2026-05-06 14:23 | 51.92099 | 9.14024 | 35797 ft | 458 kts | 267° |
| 2026-05-06 14:24 | 51.92031 | 9.03713 | 35797 ft | 458 kts | 267° |
| 2026-05-06 14:24 | 51.91955 | 8.93394 | 35802 ft | 458 kts | 266° |
| 2026-05-06 14:25 | 51.91869 | 8.83060 | 35803 ft | 459 kts | 266° |
| 2026-05-06 14:25 | 51.91774 | 8.72780 | 35817 ft | 459 kts | 266° |
| 2026-05-06 14:26 | 51.91672 | 8.62664 | 35809 ft | 460 kts | 266° |
| 2026-05-06 14:26 | 51.91561 | 8.52441 | 35824 ft | 460 kts | 266° |
| 2026-05-06 14:27 | 51.91442 | 8.42330 | 35814 ft | 460 kts | 266° |
| 2026-05-06 14:27 | 51.91338 | 8.34048 | 35823 ft | 460 kts | 266° |
| 2026-05-06 14:28 | 51.91171 | 8.21625 | 35839 ft | 461 kts | 266° |
| 2026-05-06 14:28 | 51.91021 | 8.11205 | 35835 ft | 461 kts | 266° |
| 2026-05-06 14:29 | 51.90872 | 8.01426 | 35840 ft | 461 kts | 266° |
| 2026-05-06 14:29 | 51.90705 | 7.91075 | 35830 ft | 462 kts | 266° |
| 2026-05-06 14:30 | 51.90533 | 7.80908 | 35864 ft | 461 kts | 266° |
| 2026-05-06 14:30 | 51.90347 | 7.70521 | 35845 ft | 461 kts | 266° |
| 2026-05-06 14:31 | 51.90155 | 7.60215 | 35851 ft | 461 kts | 266° |
| 2026-05-06 14:31 | 51.89951 | 7.49820 | 35849 ft | 461 kts | 266° |
| 2026-05-06 14:32 | 51.89739 | 7.39490 | 35854 ft | 461 kts | 266° |
| 2026-05-06 14:32 | 51.89517 | 7.29105 | 35862 ft | 462 kts | 266° |
| 2026-05-06 14:33 | 51.89287 | 7.18774 | 35858 ft | 462 kts | 266° |
| 2026-05-06 14:33 | 51.89047 | 7.08377 | 35857 ft | 463 kts | 266° |
| 2026-05-06 14:34 | 51.88796 | 6.97952 | 35862 ft | 463 kts | 266° |
| 2026-05-06 14:34 | 51.88537 | 6.87527 | 35858 ft | 463 kts | 266° |
| 2026-05-06 14:35 | 51.88271 | 6.77207 | 35868 ft | 464 kts | 266° |
| 2026-05-06 14:35 | 51.87993 | 6.66817 | 35861 ft | 464 kts | 265° |
| 2026-05-06 14:36 | 51.87706 | 6.56374 | 35873 ft | 464 kts | 265° |
| 2026-05-06 14:36 | 51.87414 | 6.46084 | 35864 ft | 465 kts | 265° |
| 2026-05-06 14:37 | 51.87107 | 6.35646 | 35867 ft | 464 kts | 265° |
| 2026-05-06 14:37 | 51.86792 | 6.25215 | 35879 ft | 464 kts | 265° |
| 2026-05-06 14:38 | 51.86468 | 6.14779 | 35888 ft | 465 kts | 265° |
| 2026-05-06 14:38 | 51.86134 | 6.04333 | 35879 ft | 465 kts | 265° |
| 2026-05-06 14:39 | 51.85791 | 5.93892 | 35884 ft | 465 kts | 265° |
| 2026-05-06 14:39 | 51.85448 | 5.83750 | 35893 ft | 464 kts | 265° |
| 2026-05-06 14:40 | 51.85087 | 5.73322 | 35888 ft | 464 kts | 265° |
| 2026-05-06 14:40 | 51.84717 | 5.62886 | 35876 ft | 464 kts | 265° |
| 2026-05-06 14:41 | 51.84337 | 5.52462 | 35884 ft | 464 kts | 265° |
| 2026-05-06 14:41 | 51.83953 | 5.42146 | 35883 ft | 463 kts | 265° |
| 2026-05-06 14:42 | 51.83558 | 5.31815 | 35894 ft | 463 kts | 265° |
| 2026-05-06 14:42 | 51.83152 | 5.21430 | 35882 ft | 463 kts | 265° |
| 2026-05-06 14:43 | 51.82738 | 5.11056 | 35882 ft | 463 kts | 265° |
| 2026-05-06 14:43 | 51.82314 | 5.00672 | 35883 ft | 463 kts | 265° |
| 2026-05-06 14:44 | 51.81881 | 4.90288 | 35885 ft | 463 kts | 264° |
| 2026-05-06 14:45 | 51.81218 | 4.74808 | 35878 ft | 463 kts | 264° |
| 2026-05-06 14:45 | 51.80762 | 4.64424 | 35882 ft | 463 kts | 264° |
| 2026-05-06 14:46 | 51.80296 | 4.54035 | 35882 ft | 463 kts | 264° |
| 2026-05-06 14:46 | 51.79825 | 4.43732 | 35884 ft | 463 kts | 264° |
| 2026-05-06 14:47 | 51.79343 | 4.33381 | 35881 ft | 463 kts | 264° |
| 2026-05-06 14:47 | 51.78850 | 4.23004 | 35884 ft | 463 kts | 264° |
| 2026-05-06 14:48 | 51.78351 | 4.12687 | 35889 ft | 463 kts | 264° |
| 2026-05-06 14:48 | 51.77839 | 4.02305 | 35887 ft | 463 kts | 264° |
| 2026-05-06 14:49 | 51.77319 | 3.91935 | 35890 ft | 463 kts | 264° |
| 2026-05-06 14:49 | 51.76791 | 3.81570 | 35906 ft | 463 kts | 263° |
| 2026-05-06 14:50 | 51.76257 | 3.71292 | 35903 ft | 461 kts | 264° |
| 2026-05-06 14:50 | 51.75719 | 3.61110 | 35907 ft | 459 kts | 263° |
| 2026-05-06 14:51 | 51.75169 | 3.50855 | 35898 ft | 458 kts | 264° |
| 2026-05-06 14:51 | 51.74611 | 3.40623 | 35919 ft | 458 kts | 263° |
| 2026-05-06 14:52 | 51.74044 | 3.30406 | 35918 ft | 459 kts | 264° |
| 2026-05-06 14:52 | 51.73468 | 3.20142 | 35940 ft | 460 kts | 264° |
| 2026-05-06 14:53 | 51.72773 | 3.09965 | 35934 ft | 460 kts | 261° |
| 2026-05-06 14:53 | 51.71840 | 2.99756 | 35946 ft | 460 kts | 260° |
| 2026-05-06 14:54 | 51.70920 | 2.89599 | 35933 ft | 460 kts | 261° |
| 2026-05-06 14:54 | 51.70017 | 2.79327 | 35946 ft | 460 kts | 261° |
| 2026-05-06 14:55 | 51.69269 | 2.70840 | 35941 ft | 460 kts | 261° |
| 2026-05-06 14:55 | 51.68221 | 2.59105 | 35949 ft | 460 kts | 261° |
| 2026-05-06 14:56 | 51.67300 | 2.48903 | 35947 ft | 460 kts | 261° |
| 2026-05-06 14:56 | 51.66507 | 2.40362 | 35951 ft | 460 kts | 261° |
| 2026-05-06 14:57 | 51.65543 | 2.30161 | 35951 ft | 460 kts | 261° |
| 2026-05-06 14:57 | 51.64577 | 2.19969 | 35953 ft | 461 kts | 261° |
| 2026-05-06 14:58 | 51.63621 | 2.09966 | 35955 ft | 461 kts | 261° |
| 2026-05-06 14:58 | 51.62699 | 1.99765 | 35951 ft | 461 kts | 261° |
| 2026-05-06 14:59 | 51.61769 | 1.89562 | 35958 ft | 461 kts | 261° |
| 2026-05-06 14:59 | 51.60813 | 1.79360 | 35956 ft | 461 kts | 261° |
| 2026-05-06 15:00 | 51.59854 | 1.69151 | 35957 ft | 462 kts | 261° |
| 2026-05-06 15:00 | 51.59211 | 1.58894 | 35962 ft | 462 kts | 269° |
| 2026-05-06 15:01 | 51.59591 | 1.48578 | 35967 ft | 462 kts | 274° |
| 2026-05-06 15:01 | 51.60079 | 1.38265 | 35962 ft | 462 kts | 274° |
| 2026-05-06 15:02 | 51.60508 | 1.28001 | 35963 ft | 463 kts | 273° |
| 2026-05-06 15:02 | 51.60912 | 1.17674 | 35965 ft | 463 kts | 273° |
| 2026-05-06 15:03 | 51.61305 | 1.07344 | 35964 ft | 463 kts | 273° |
| 2026-05-06 15:03 | 51.61693 | 0.97047 | 35957 ft | 461 kts | 273° |
| 2026-05-06 15:03 | 51.61882 | 0.91935 | 35792 ft | 457 kts | 273° |
| 2026-05-06 15:04 | 51.62079 | 0.86916 | 35275 ft | 454 kts | 274° |
| 2026-05-06 15:04 | 51.62299 | 0.81812 | 34804 ft | 449 kts | 274° |
| 2026-05-06 15:04 | 51.62440 | 0.78506 | 34493 ft | 447 kts | 274° |
| 2026-05-06 15:05 | 51.62498 | 0.77159 | 34363 ft | 446 kts | 274° |
| 2026-05-06 15:05 | 51.62708 | 0.71783 | 33835 ft | 442 kts | 273° |
| 2026-05-06 15:05 | 51.62851 | 0.66932 | 33300 ft | 438 kts | 272° |
| 2026-05-06 15:05 | 51.62986 | 0.62146 | 32813 ft | 434 kts | 272° |
| 2026-05-06 15:06 | 51.63160 | 0.57293 | 32350 ft | 429 kts | 273° |
| 2026-05-06 15:06 | 51.63343 | 0.52519 | 31865 ft | 425 kts | 273° |
| 2026-05-06 15:06 | 51.63516 | 0.47790 | 31410 ft | 421 kts | 273° |
| 2026-05-06 15:06 | 51.63678 | 0.43115 | 30959 ft | 418 kts | 273° |
| 2026-05-06 15:07 | 51.63835 | 0.38472 | 30510 ft | 414 kts | 272° |
| 2026-05-06 15:07 | 51.63989 | 0.33857 | 30115 ft | 410 kts | 272° |
| 2026-05-06 15:07 | 51.64143 | 0.29252 | 30008 ft | 416 kts | 272° |
| 2026-05-06 15:08 | 51.64500 | 0.19922 | 29995 ft | 417 kts | 277° |
| 2026-05-06 15:08 | 51.65840 | 0.10945 | 29989 ft | 414 kts | 288° |
| 2026-05-06 15:08 | 51.66920 | 0.06670 | 29724 ft | 411 kts | 293° |
| 2026-05-06 15:09 | 51.68105 | 0.02499 | 29229 ft | 408 kts | 294° |
| 2026-05-06 15:09 | 51.69296 | -0.01623 | 28774 ft | 405 kts | 294° |
| 2026-05-06 15:09 | 51.70477 | -0.05727 | 28202 ft | 403 kts | 294° |
| 2026-05-06 15:09 | 51.71644 | -0.09819 | 27697 ft | 401 kts | 293° |
| 2026-05-06 15:10 | 51.72798 | -0.13903 | 27235 ft | 398 kts | 293° |
| 2026-05-06 15:10 | 51.73933 | -0.17943 | 26801 ft | 394 kts | 293° |
| 2026-05-06 15:10 | 51.74883 | -0.21340 | 26430 ft | 391 kts | 293° |
| 2026-05-06 15:10 | 51.75996 | -0.25328 | 25966 ft | 389 kts | 293° |
| 2026-05-06 15:11 | 51.77103 | -0.29302 | 25487 ft | 387 kts | 293° |
| 2026-05-06 15:11 | 51.78103 | -0.32892 | 25111 ft | 384 kts | 293° |
| 2026-05-06 15:11 | 51.79192 | -0.36811 | 24646 ft | 382 kts | 293° |
| 2026-05-06 15:11 | 51.80400 | -0.40596 | 24156 ft | 378 kts | 304° |
| 2026-05-06 15:12 | 51.82251 | -0.43634 | 23664 ft | 383 kts | 323° |
| 2026-05-06 15:12 | 51.84487 | -0.45868 | 23189 ft | 380 kts | 327° |
| 2026-05-06 15:12 | 51.86753 | -0.48019 | 22669 ft | 379 kts | 327° |
| 2026-05-06 15:12 | 51.89029 | -0.50185 | 22193 ft | 377 kts | 327° |
| 2026-05-06 15:13 | 51.91278 | -0.52340 | 21747 ft | 375 kts | 327° |
| 2026-05-06 15:13 | 51.93507 | -0.54492 | 21331 ft | 371 kts | 327° |
| 2026-05-06 15:13 | 51.95710 | -0.56632 | 20916 ft | 368 kts | 327° |
| 2026-05-06 15:13 | 51.97900 | -0.58768 | 20506 ft | 365 kts | 326° |
| 2026-05-06 15:14 | 52.00062 | -0.60883 | 20124 ft | 362 kts | 327° |
| 2026-05-06 15:14 | 52.02206 | -0.62986 | 19719 ft | 359 kts | 326° |
| 2026-05-06 15:14 | 52.04337 | -0.65078 | 19336 ft | 356 kts | 327° |
| 2026-05-06 15:14 | 52.06448 | -0.67154 | 18939 ft | 353 kts | 327° |
| 2026-05-06 15:15 | 52.08541 | -0.69215 | 18532 ft | 351 kts | 327° |
| 2026-05-06 15:15 | 52.10617 | -0.71261 | 18143 ft | 348 kts | 327° |
| 2026-05-06 15:15 | 52.12650 | -0.73268 | 17704 ft | 345 kts | 327° |
| 2026-05-06 15:15 | 52.14719 | -0.75311 | 17298 ft | 342 kts | 327° |
| 2026-05-06 15:16 | 52.16733 | -0.77302 | 16908 ft | 338 kts | 327° |
| 2026-05-06 15:16 | 52.18711 | -0.79260 | 16532 ft | 334 kts | 327° |
| 2026-05-06 15:16 | 52.20672 | -0.81203 | 16146 ft | 331 kts | 327° |
| 2026-05-06 15:16 | 52.22626 | -0.83141 | 15774 ft | 327 kts | 327° |
| 2026-05-06 15:17 | 52.24559 | -0.85060 | 15408 ft | 324 kts | 327° |
| 2026-05-06 15:17 | 52.26471 | -0.86954 | 15047 ft | 320 kts | 327° |
| 2026-05-06 15:17 | 52.28340 | -0.88804 | 14700 ft | 316 kts | 327° |
| 2026-05-06 15:17 | 52.30237 | -0.90682 | 14338 ft | 313 kts | 327° |
| 2026-05-06 15:18 | 52.32092 | -0.92521 | 13982 ft | 310 kts | 327° |
| 2026-05-06 15:18 | 52.33930 | -0.94344 | 13615 ft | 307 kts | 327° |
| 2026-05-06 15:18 | 52.35749 | -0.96150 | 13237 ft | 304 kts | 327° |
| 2026-05-06 15:18 | 52.37531 | -0.97922 | 12887 ft | 303 kts | 327° |
| 2026-05-06 15:19 | 52.39364 | -0.99724 | 12548 ft | 303 kts | 332° |
| 2026-05-06 15:19 | 52.41351 | -1.00710 | 12210 ft | 309 kts | 354° |
| 2026-05-06 15:19 | 52.43527 | -1.00401 | 11869 ft | 320 kts | 12° |
| 2026-05-06 15:19 | 52.45680 | -0.99432 | 11501 ft | 321 kts | 14° |
| 2026-05-06 15:20 | 52.47776 | -0.98658 | 11119 ft | 310 kts | 0° |
| 2026-05-06 15:20 | 52.49896 | -0.99164 | 10783 ft | 302 kts | 338° |
| 2026-05-06 15:20 | 52.51759 | -1.00650 | 10521 ft | 294 kts | 331° |
| 2026-05-06 15:20 | 52.53507 | -1.02221 | 10483 ft | 279 kts | 331° |
| 2026-05-06 15:21 | 52.55120 | -1.03680 | 10436 ft | 268 kts | 331° |
| 2026-05-06 15:21 | 52.56728 | -1.05146 | 10379 ft | 258 kts | 330° |
| 2026-05-06 15:21 | 52.58375 | -1.06658 | 10285 ft | 288 kts | 330° |
| 2026-05-06 15:21 | 52.60201 | -1.08341 | 10098 ft | 306 kts | 330° |
| 2026-05-06 15:22 | 52.61981 | -1.09984 | 10044 ft | 299 kts | 330° |
| 2026-05-06 15:22 | 52.63793 | -1.11663 | 9953 ft | 297 kts | 330° |
| 2026-05-06 15:22 | 52.65513 | -1.13260 | 9636 ft | 280 kts | 330° |
| 2026-05-06 15:22 | 52.67160 | -1.14794 | 9308 ft | 269 kts | 330° |
| 2026-05-06 15:23 | 52.68812 | -1.16340 | 8772 ft | 272 kts | 330° |
| 2026-05-06 15:23 | 52.70286 | -1.18275 | 8243 ft | 276 kts | 308° |
| 2026-05-06 15:23 | 52.71100 | -1.21152 | 7748 ft | 284 kts | 283° |
| 2026-05-06 15:23 | 52.71328 | -1.24350 | 7263 ft | 276 kts | 276° |
| 2026-05-06 15:24 | 52.71479 | -1.27477 | 6817 ft | 274 kts | 276° |
| 2026-05-06 15:24 | 52.71624 | -1.30599 | 6469 ft | 272 kts | 275° |
| 2026-05-06 15:24 | 52.71750 | -1.33691 | 6109 ft | 268 kts | 276° |
| 2026-05-06 15:24 | 52.71874 | -1.36739 | 5767 ft | 265 kts | 275° |
| 2026-05-06 15:25 | 52.71985 | -1.39760 | 5421 ft | 262 kts | 276° |
| 2026-05-06 15:25 | 52.72077 | -1.42747 | 5066 ft | 259 kts | 275° |
| 2026-05-06 15:25 | 52.72165 | -1.45696 | 4743 ft | 256 kts | 276° |
| 2026-05-06 15:25 | 52.72255 | -1.48613 | 4419 ft | 254 kts | 277° |
| 2026-05-06 15:26 | 52.72349 | -1.51514 | 4048 ft | 253 kts | 275° |
| 2026-05-06 15:26 | 52.72440 | -1.54379 | 3693 ft | 250 kts | 275° |
| 2026-05-06 15:26 | 52.72542 | -1.57206 | 3372 ft | 248 kts | 276° |
| 2026-05-06 15:26 | 52.72639 | -1.60027 | 3040 ft | 242 kts | 277° |
| 2026-05-06 15:27 | 52.73089 | -1.62594 | 2974 ft | 229 kts | 307° |
| 2026-05-06 15:27 | 52.74224 | -1.64246 | 2977 ft | 212 kts | 341° |
| 2026-05-06 15:27 | 52.75659 | -1.64501 | 3016 ft | 213 kts | 14° |
| 2026-05-06 15:27 | 52.77060 | -1.63797 | 3004 ft | 207 kts | 20° |
| 2026-05-06 15:28 | 52.78399 | -1.63053 | 3009 ft | 203 kts | 20° |
| 2026-05-06 15:28 | 52.79733 | -1.62298 | 3016 ft | 204 kts | 22° |
| 2026-05-06 15:28 | 52.80871 | -1.61046 | 2985 ft | 195 kts | 51° |
| 2026-05-06 15:28 | 52.81585 | -1.59177 | 2902 ft | 196 kts | 59° |
| 2026-05-06 15:29 | 52.82252 | -1.57224 | 2585 ft | 191 kts | 65° |
| 2026-05-06 15:29 | 52.82535 | -1.55102 | 2163 ft | 187 kts | 81° |
| 2026-05-06 15:29 | 52.82687 | -1.53061 | 2011 ft | 169 kts | 82° |
| 2026-05-06 15:29 | 52.82753 | -1.51242 | 1974 ft | 156 kts | 84° |
| 2026-05-06 15:30 | 52.82794 | -1.49424 | 1994 ft | 160 kts | 84° |
| 2026-05-06 15:30 | 52.82827 | -1.47612 | 1931 ft | 159 kts | 84° |
| 2026-05-06 15:30 | 52.82859 | -1.45836 | 1712 ft | 149 kts | 84° |
| 2026-05-06 15:30 | 52.82888 | -1.44208 | 1500 ft | 142 kts | 84° |
| 2026-05-06 15:31 | 52.82919 | -1.42603 | 1311 ft | 142 kts | 83° |
| 2026-05-06 15:31 | 52.82949 | -1.40991 | 1104 ft | 137 kts | 84° |
| 2026-05-06 15:31 | 52.82977 | -1.39417 | 935 ft | 136 kts | 83° |
| 2026-05-06 15:32 | 52.83030 | -1.36357 | 528 ft | 129 kts | 85° |
| 2026-05-06 15:32 | 52.83059 | -1.34876 | 376 ft | 130 kts | 85° |
| 2026-05-06 15:32 | 52.83089 | -1.33428 | 314 ft | 116 kts | 85° |
| 2026-05-06 15:32 | 52.83112 | -1.32352 | 307 ft | 64 kts | 88° |
| 2026-05-06 15:33 | 52.83124 | -1.31760 | 313 ft | 41 kts | 87° |
| 2026-05-06 15:33 | 52.83126 | -1.31445 | 312 ft | 18 kts | 94° |
| 2026-05-06 15:33 | 52.83078 | -1.31333 | 310 ft | 5 kts | 161° |
| 2026-05-06 15:33 | 52.83009 | -1.31314 | 306 ft | 17 kts | 178° |
| 2026-05-06 15:34 | 52.82958 | -1.31421 | 308 ft | 8 kts | 262° |
| 2026-05-06 15:34 | 52.82958 | -1.31426 | 307 ft | 0 kts | 263° |
| 2026-05-06 15:34 | 52.82957 | -1.31427 | 307 ft | 0 kts | 263° |
| 2026-05-06 15:35 | 52.82957 | -1.31438 | 306 ft | 5 kts | 263° |
| 2026-05-06 15:35 | 52.82951 | -1.31618 | 305 ft | 20 kts | 268° |
| 2026-05-06 15:35 | 52.82949 | -1.31777 | 308 ft | 20 kts | 269° |
| 2026-05-06 15:35 | 52.82946 | -1.32000 | 309 ft | 20 kts | 268° |
| 2026-05-06 15:36 | 52.82940 | -1.32226 | 305 ft | 20 kts | 268° |
| 2026-05-06 15:36 | 52.82936 | -1.32452 | 306 ft | 20 kts | 268° |
| 2026-05-06 15:36 | 52.82933 | -1.32677 | 309 ft | 20 kts | 268° |
| 2026-05-06 15:36 | 52.82929 | -1.32904 | 307 ft | 20 kts | 268° |
| 2026-05-06 15:37 | 52.82925 | -1.33129 | 306 ft | 20 kts | 267° |
| 2026-05-06 15:37 | 52.82920 | -1.33349 | 312 ft | 20 kts | 268° |
| 2026-05-06 15:37 | 52.82916 | -1.33576 | 311 ft | 20 kts | 268° |
| 2026-05-06 15:37 | 52.82912 | -1.33800 | 309 ft | 20 kts | 269° |
| 2026-05-06 15:38 | 52.82910 | -1.34028 | 306 ft | 20 kts | 268° |
| 2026-05-06 15:38 | 52.82906 | -1.34263 | 310 ft | 19 kts | 268° |
| 2026-05-06 15:38 | 52.82868 | -1.34403 | 307 ft | 14 kts | 211° |
| 2026-05-06 15:38 | 52.82832 | -1.34556 | 308 ft | 15 kts | 265° |
| 2026-05-06 15:39 | 52.82826 | -1.34731 | 307 ft | 15 kts | 268° |
| 2026-05-06 15:39 | 52.82823 | -1.34859 | 307 ft | 6 kts | 257° |
| 2026-05-06 15:39 | 52.82784 | -1.34871 | 307 ft | 6 kts | 176° |
| 2026-05-06 15:39 | 52.82756 | -1.34868 | 308 ft | 1 kts | 178° |
| 2026-05-06 15:40 | 52.82751 | -1.34868 | 308 ft | 0 kts | 178° |
| 2026-05-06 15:40 | 52.82750 | -1.34868 | 308 ft | 0 kts | 178° |
| 2026-05-06 15:40 | 52.82747 | -1.34868 | 308 ft | 0 kts | 178° |